createdAt,value
2022-09-14T00:01:39.191Z,6.70
2022-09-14T00:04:42.418Z,3.10
2022-09-14T00:07:45.664Z,3.40
2022-09-14T00:10:48.951Z,3.23
2022-09-14T00:13:53.038Z,4.67
2022-09-14T00:16:57.728Z,5.17
2022-09-14T00:20:02.375Z,4.43
2022-09-14T00:23:06.179Z,2.60
2022-09-14T00:26:11.123Z,3.93
2022-09-14T00:29:14.335Z,5.30
2022-09-14T00:32:18.910Z,3.97
2022-09-14T00:35:22.641Z,4.40
2022-09-14T00:38:27.866Z,3.87
2022-09-14T00:41:34.665Z,5.67
2022-09-14T00:45:01.328Z,6.57
2022-09-14T00:48:06.143Z,6.57
2022-09-14T00:51:09.484Z,7.60
2022-09-14T00:54:12.969Z,4.00
2022-09-14T00:57:17.153Z,3.77
2022-09-14T01:00:23.753Z,3.07
2022-09-14T01:03:28.529Z,6.77
2022-09-14T01:06:38.973Z,4.53
2022-09-14T01:09:47.550Z,5.47
2022-09-14T01:12:58.841Z,3.37
2022-09-14T01:16:11.739Z,4.13
2022-09-14T01:19:26.798Z,3.03
2022-09-14T01:22:38.076Z,7.07
2022-09-14T01:26:22.136Z,4.23
2022-09-14T01:29:32.133Z,5.00
2022-09-14T01:32:41.256Z,3.13
2022-09-14T01:35:50.535Z,4.47
2022-09-14T01:38:56.406Z,3.73
2022-09-14T01:42:02.689Z,4.23
2022-09-14T01:45:12.158Z,6.10
2022-09-14T01:48:19.309Z,7.97
2022-09-14T01:51:27.850Z,5.13
2022-09-14T01:54:37.023Z,5.47
2022-09-14T01:57:43.901Z,5.97
2022-09-14T02:00:50.724Z,5.77
2022-09-14T02:03:59.243Z,3.80
2022-09-14T02:07:03.187Z,4.33
2022-09-14T02:10:10.348Z,3.93
2022-09-14T02:13:13.994Z,4.27
2022-09-14T02:16:19.665Z,5.13
2022-09-14T02:19:24.411Z,8.20
2022-09-14T02:22:29.564Z,4.37
2022-09-14T02:25:33.572Z,7.23
2022-09-14T02:28:36.933Z,3.23
2022-09-14T02:31:55.189Z,5.10
2022-09-14T02:35:07.065Z,4.03
2022-09-14T02:38:20.356Z,6.30
2022-09-14T02:41:37.329Z,6.57
2022-09-14T02:44:47.920Z,8.23
2022-09-14T02:48:02.559Z,5.07
2022-09-14T02:51:12.652Z,6.33
2022-09-14T02:54:19.432Z,4.37
2022-09-14T02:57:22.660Z,5.10
2022-09-14T03:00:25.985Z,6.93
2022-09-14T03:03:35.337Z,5.07
2022-09-14T03:06:38.939Z,3.93
2022-09-14T03:09:42.182Z,4.93
2022-09-14T03:12:45.383Z,5.00
2022-09-14T03:15:48.675Z,11.00
2022-09-14T03:18:53.332Z,7.30
2022-09-14T03:21:56.513Z,8.40
2022-09-14T03:24:59.722Z,10.17
2022-09-14T03:28:03.108Z,5.90
2022-09-14T03:31:08.275Z,8.63
2022-09-14T03:34:13.003Z,10.43
2022-09-14T03:37:16.262Z,6.47
2022-09-14T03:40:22.082Z,7.97
2022-09-14T03:43:26.812Z,13.00
2022-09-14T03:46:30.107Z,9.50
2022-09-14T03:49:34.718Z,10.97
2022-09-14T03:52:39.055Z,11.13
2022-09-14T03:55:42.596Z,15.23
2022-09-14T03:58:47.185Z,11.97
2022-09-14T04:01:50.630Z,7.37
2022-09-14T04:04:55.289Z,9.60
2022-09-14T04:07:58.507Z,14.70
2022-09-14T04:11:01.993Z,18.80
2022-09-14T04:14:07.743Z,12.07
2022-09-14T04:17:11.007Z,14.87
2022-09-14T04:20:15.720Z,16.47
2022-09-14T04:23:18.856Z,5.87
2022-09-14T04:26:24.166Z,11.33
2022-09-14T04:29:27.406Z,10.30
2022-09-14T04:32:34.263Z,9.00
2022-09-14T04:35:39.267Z,9.93
2022-09-14T04:38:43.680Z,9.83
2022-09-14T04:41:47.281Z,8.20
2022-09-14T04:44:50.466Z,9.57
2022-09-14T04:47:54.713Z,7.30
2022-09-14T04:51:04.337Z,9.57
2022-09-14T04:54:08.502Z,8.63
2022-09-14T04:57:11.679Z,7.90
2022-09-14T05:00:15.488Z,9.30
2022-09-14T05:03:18.693Z,8.13
2022-09-14T05:06:25.295Z,8.77
2022-09-14T05:09:28.601Z,7.23
2022-09-14T05:12:31.847Z,5.53
2022-09-14T05:15:35.082Z,5.53
2022-09-14T05:18:38.422Z,6.80
2022-09-14T05:21:43.060Z,9.00
2022-09-14T05:24:46.308Z,7.13
2022-09-14T05:27:49.490Z,10.37
2022-09-14T05:30:52.846Z,10.47
2022-09-14T05:33:56.299Z,5.47
2022-09-14T05:37:00.874Z,8.00
2022-09-14T05:40:05.031Z,14.27
2022-09-14T05:43:08.685Z,23.10
2022-09-14T05:46:13.395Z,10.90
2022-09-14T05:49:16.657Z,20.27
2022-09-14T05:52:21.925Z,8.90
2022-09-14T05:55:25.286Z,8.43
2022-09-14T05:58:28.783Z,6.32
2022-09-14T06:01:33.661Z,37.65
2022-09-14T06:04:37.220Z,18.52
2022-09-14T06:07:41.839Z,9.82
2022-09-14T06:10:45.088Z,8.73
2022-09-14T06:13:49.687Z,28.48
2022-09-14T06:16:52.923Z,10.73
2022-09-14T06:19:56.124Z,16.40
2022-09-14T06:23:00.678Z,24.45
2022-09-14T06:26:05.744Z,21.10
2022-09-14T06:29:09.086Z,25.77
2022-09-14T06:32:12.281Z,17.25
2022-09-14T06:35:16.021Z,4.50
2022-09-14T06:38:20.614Z,10.63
2022-09-14T06:41:26.631Z,6.18
2022-09-14T06:44:30.131Z,4.70
2022-09-14T06:47:34.202Z,4.95
2022-09-14T06:50:38.012Z,7.15
2022-09-14T06:53:43.115Z,6.45
2022-09-14T06:56:47.790Z,5.65
2022-09-14T06:59:51.049Z,5.05
2022-09-14T07:02:56.117Z,7.55
2022-09-14T07:06:03.705Z,9.50
2022-09-14T07:09:08.606Z,5.03
2022-09-14T07:12:12.008Z,8.10
2022-09-14T07:15:15.361Z,27.40
2022-09-14T07:18:18.831Z,10.27
2022-09-14T07:21:22.457Z,4.63
2022-09-14T07:24:27.102Z,7.82
2022-09-14T07:27:30.335Z,7.13
2022-09-14T07:30:37.761Z,7.43
2022-09-14T07:33:41.071Z,9.65
2022-09-14T07:36:44.961Z,12.50
2022-09-14T07:39:49.678Z,11.52
2022-09-14T07:42:57.410Z,11.82
2022-09-14T07:46:04.332Z,5.55
2022-09-14T07:49:08.935Z,10.88
2022-09-14T07:52:12.654Z,7.25
2022-09-14T07:55:18.243Z,14.48
2022-09-14T07:58:22.999Z,70.85
2022-09-14T08:01:29.967Z,27.88
2022-09-14T08:04:33.152Z,8.88
2022-09-14T08:07:36.317Z,26.83
2022-09-14T08:10:40.915Z,119.13
2022-09-14T08:13:47.132Z,5.40
2022-09-14T08:16:50.357Z,6.93
2022-09-14T08:19:54.230Z,8.00
2022-09-14T08:22:57.367Z,10.10
2022-09-14T08:26:05.968Z,7.28
2022-09-14T08:29:09.186Z,5.60
2022-09-14T08:32:12.920Z,3.65
2022-09-14T08:35:16.135Z,4.47
2022-09-14T08:38:19.255Z,3.92
2022-09-14T08:41:30.066Z,5.85
2022-09-14T08:44:44.538Z,4.68
2022-09-14T08:47:47.922Z,3.40
2022-09-14T08:50:53.953Z,4.38
2022-09-14T08:53:59.563Z,4.13
2022-09-14T08:57:10.785Z,4.03
2022-09-14T09:00:17.318Z,3.70
2022-09-14T09:03:45.383Z,4.43
2022-09-14T09:06:57.237Z,3.15
2022-09-14T09:10:01.431Z,4.63
2022-09-14T09:13:08.620Z,3.03
2022-09-14T09:16:13.696Z,4.25
2022-09-14T09:19:26.719Z,8.00
2022-09-14T09:22:36.793Z,4.07
2022-09-14T09:25:51.671Z,6.07
2022-09-14T09:28:59.586Z,5.68
2022-09-14T09:32:03.080Z,7.30
2022-09-14T09:35:25.918Z,2.13
2022-09-14T09:38:37.960Z,4.30
2022-09-14T09:41:45.678Z,5.97
2022-09-14T09:45:02.472Z,6.20
2022-09-14T09:48:11.332Z,5.18
2022-09-14T09:51:18.877Z,4.93
2022-09-14T09:54:28.130Z,7.38
2022-09-14T09:57:33.598Z,4.00
2022-09-14T10:00:38.509Z,6.80
2022-09-14T10:03:42.345Z,4.85
2022-09-14T10:06:48.251Z,3.58
2022-09-14T10:09:59.608Z,2.17
2022-09-14T10:13:05.838Z,13.88
2022-09-14T10:16:16.907Z,1.83
2022-09-14T10:19:24.598Z,3.35
2022-09-14T10:22:29.782Z,3.83
2022-09-14T10:25:33.018Z,4.18
2022-09-14T10:28:36.261Z,2.67
2022-09-14T10:31:42.322Z,4.00
2022-09-14T10:34:45.792Z,2.45
2022-09-14T10:38:12.525Z,2.95
2022-09-14T10:41:25.526Z,3.85
2022-09-14T10:44:44.087Z,1.90
2022-09-14T10:48:02.805Z,1.77
2022-09-14T10:51:30.709Z,2.22
2022-09-14T10:54:54.552Z,5.55
2022-09-14T10:58:11.747Z,5.20
2022-09-14T11:01:32.248Z,4.30
2022-09-14T11:04:55.246Z,2.78
2022-09-14T11:08:23.104Z,3.75
2022-09-14T11:11:39.772Z,3.47
2022-09-14T11:14:56.951Z,4.03
2022-09-14T11:18:17.351Z,3.92
2022-09-14T11:21:30.419Z,3.80
2022-09-14T11:24:41.044Z,3.35
2022-09-14T11:27:49.049Z,3.60
2022-09-14T11:30:57.620Z,4.43
2022-09-14T11:34:16.612Z,2.75
2022-09-14T11:37:23.036Z,4.15
2022-09-14T11:40:32.590Z,5.40
2022-09-14T11:43:49.404Z,11.40
2022-09-14T11:47:00.943Z,2.03
2022-09-14T11:50:16.753Z,3.17
2022-09-14T11:53:23.051Z,1.95
2022-09-14T11:56:29.442Z,3.22
2022-09-14T11:59:51.515Z,2.30
2022-09-14T12:03:16.038Z,7.55
2022-09-14T12:06:49.019Z,1.92
2022-09-14T12:10:20.207Z,2.92
2022-09-14T12:13:23.937Z,2.08
2022-09-14T12:16:29.699Z,3.10
2022-09-14T12:19:35.368Z,5.35
2022-09-14T12:22:39.618Z,2.03
2022-09-14T12:25:56.205Z,2.65
2022-09-14T12:29:05.684Z,3.30
2022-09-14T12:32:50.549Z,2.05
2022-09-14T12:35:53.774Z,5.05
2022-09-14T12:39:21.635Z,2.83
2022-09-14T12:42:32.289Z,3.92
2022-09-14T12:45:53.237Z,2.47
2022-09-14T12:48:58.985Z,2.92
2022-09-14T12:52:26.539Z,2.38
2022-09-14T12:55:48.609Z,4.43
2022-09-14T12:59:04.161Z,3.92
2022-09-14T13:02:39.647Z,1.77
2022-09-14T13:05:46.142Z,3.70
2022-09-14T13:08:51.653Z,3.40
2022-09-14T13:11:57.790Z,1.65
2022-09-14T13:15:06.477Z,7.80
2022-09-14T13:18:31.003Z,3.13
2022-09-14T13:21:34.310Z,5.10
2022-09-14T13:24:44.301Z,6.13
2022-09-14T13:27:50.431Z,1.55
2022-09-14T13:31:00.440Z,2.13
2022-09-14T13:34:05.392Z,2.13
2022-09-14T13:37:08.765Z,2.20
2022-09-14T13:40:14.092Z,1.80
2022-09-14T13:43:18.332Z,2.78
2022-09-14T13:46:23.885Z,1.98
2022-09-14T13:49:27.827Z,2.80
2022-09-14T13:52:59.908Z,4.45
2022-09-14T13:55:59.117Z,4.57
2022-09-14T13:59:18.352Z,4.05
2022-09-14T14:02:23.109Z,2.30
2022-09-14T14:05:30.047Z,3.67
2022-09-14T14:08:37.591Z,3.63
2022-09-14T14:11:43.448Z,1.98
2022-09-14T14:14:54.461Z,4.07
2022-09-14T14:17:59.127Z,3.83
2022-09-14T14:21:07.721Z,3.10
2022-09-14T14:24:27.981Z,9.88
2022-09-14T14:27:34.116Z,3.55
2022-09-14T14:30:40.377Z,5.88
2022-09-14T14:33:50.198Z,2.15
2022-09-14T14:36:53.475Z,3.60
2022-09-14T14:39:56.685Z,8.80
2022-09-14T14:43:02.956Z,2.65
2022-09-14T14:46:09.430Z,3.95
2022-09-14T14:49:15.572Z,4.97
2022-09-14T14:52:18.822Z,2.35
2022-09-14T14:55:23.420Z,1.55
2022-09-14T14:58:26.652Z,4.13
2022-09-14T15:01:29.980Z,3.17
2022-09-14T15:04:34.621Z,4.97
2022-09-14T15:07:38.097Z,4.25
2022-09-14T15:10:42.204Z,2.95
2022-09-14T15:13:45.551Z,3.03
2022-09-14T15:16:48.957Z,2.83
2022-09-14T15:19:53.896Z,4.07
2022-09-14T15:22:57.479Z,2.92
2022-09-14T15:26:00.808Z,2.00
2022-09-14T15:29:04.491Z,5.75
2022-09-14T15:32:07.699Z,1.88
2022-09-14T15:35:15.457Z,3.42
2022-09-14T15:38:18.651Z,5.32
2022-09-14T15:41:21.862Z,6.45
2022-09-14T15:44:25.208Z,5.53
2022-09-14T15:47:30.738Z,2.30
2022-09-14T15:50:43.359Z,2.25
2022-09-14T15:53:47.872Z,2.88
2022-09-14T15:56:52.489Z,5.07
2022-09-14T15:59:56.023Z,6.85
2022-09-14T16:02:59.353Z,3.45
2022-09-14T16:06:05.369Z,4.95
2022-09-14T16:09:11.449Z,4.78
2022-09-14T16:12:14.807Z,6.75
2022-09-14T16:15:18.163Z,8.18
2022-09-14T16:18:21.430Z,3.33
2022-09-14T16:21:27.912Z,8.10
2022-09-14T16:24:32.179Z,5.93
2022-09-14T16:27:35.592Z,11.65
2022-09-14T16:30:38.847Z,5.57
2022-09-14T16:33:45.308Z,8.23
2022-09-14T16:36:50.158Z,2.85
2022-09-14T16:39:53.456Z,6.65
2022-09-14T16:42:56.672Z,12.27
2022-09-14T16:46:05.543Z,8.60
2022-09-14T16:49:09.368Z,10.45
2022-09-14T16:52:14.032Z,10.02
2022-09-14T16:55:17.224Z,7.13
2022-09-14T16:58:20.492Z,6.72
2022-09-14T17:01:25.866Z,15.73
2022-09-14T17:04:29.174Z,11.20
2022-09-14T17:07:33.886Z,7.65
2022-09-14T17:10:37.211Z,6.88
2022-09-14T17:13:41.192Z,15.00
2022-09-14T17:16:44.960Z,10.45
2022-09-14T17:19:48.250Z,10.40
2022-09-14T17:22:53.882Z,9.70
2022-09-14T17:25:57.683Z,13.55
2022-09-14T17:29:01.971Z,15.07
2022-09-14T17:32:05.296Z,14.00
2022-09-14T17:35:09.362Z,13.23
2022-09-14T17:38:13.962Z,17.45
2022-09-14T17:41:18.797Z,29.13
2022-09-14T17:44:23.815Z,29.02
2022-09-14T17:47:27.526Z,16.83
2022-09-14T17:50:30.771Z,16.85
2022-09-14T17:53:38.783Z,19.15
2022-09-14T17:56:42.353Z,14.15
2022-09-14T17:59:45.897Z,20.15
2022-09-14T18:02:52.110Z,13.82
2022-09-14T18:05:55.805Z,19.95
2022-09-14T18:09:04.141Z,23.20
2022-09-14T18:12:07.804Z,15.52
2022-09-14T18:15:15.033Z,24.15
2022-09-14T18:18:18.612Z,24.25
2022-09-14T18:21:21.821Z,17.85
2022-09-14T18:24:27.091Z,20.38
2022-09-14T18:27:31.251Z,17.42
2022-09-14T18:30:34.926Z,22.30
2022-09-14T18:33:38.757Z,20.35
2022-09-14T18:36:41.972Z,16.33
2022-09-14T18:39:46.683Z,19.55
2022-09-14T18:42:49.854Z,16.75
2022-09-14T18:45:54.079Z,17.40
2022-09-14T18:48:58.696Z,20.10
2022-09-14T18:52:01.904Z,18.95
2022-09-14T18:55:07.610Z,22.77
2022-09-14T18:58:10.827Z,19.13
2022-09-14T19:01:15.074Z,26.80
2022-09-14T19:04:18.308Z,31.92
2022-09-14T19:07:21.465Z,42.55
2022-09-14T19:10:26.998Z,42.15
2022-09-14T19:13:30.205Z,47.10
2022-09-14T19:16:33.691Z,54.28
2022-09-14T19:19:37.091Z,67.03
2022-09-14T19:22:41.869Z,85.07
2022-09-14T19:25:46.547Z,78.85
2022-09-14T19:28:49.938Z,77.68
2022-09-14T19:31:55.199Z,66.93
2022-09-14T19:34:58.407Z,67.72
2022-09-14T19:38:01.556Z,60.40
2022-09-14T19:41:06.990Z,59.40
2022-09-14T19:44:10.385Z,57.83
2022-09-14T19:47:13.657Z,44.10
2022-09-14T19:50:17.134Z,39.25
2022-09-14T19:53:20.373Z,34.08
2022-09-14T19:56:26.927Z,28.33
2022-09-14T19:59:30.138Z,30.88
2022-09-14T20:02:33.452Z,33.63
2022-09-14T20:05:36.697Z,30.60
2022-09-14T20:08:39.989Z,27.10
2022-09-14T20:11:46.169Z,27.13
2022-09-14T20:14:49.510Z,26.75
2022-09-14T20:17:55.456Z,28.60
2022-09-14T20:20:58.652Z,27.98
2022-09-14T20:24:15.695Z,31.70
2022-09-14T20:27:21.565Z,22.15
2022-09-14T20:30:25.363Z,18.17
2022-09-14T20:33:28.697Z,14.68
2022-09-14T20:36:32.502Z,15.20
2022-09-14T20:39:38.326Z,13.68
2022-09-14T20:42:42.853Z,12.68
2022-09-14T20:45:46.085Z,8.75
2022-09-14T20:48:50.430Z,10.05
2022-09-14T20:51:54.468Z,8.63
2022-09-14T20:54:57.792Z,11.40
2022-09-14T20:58:02.444Z,6.85
2022-09-14T21:01:08.634Z,10.60
2022-09-14T21:04:13.969Z,10.38
2022-09-14T21:07:17.745Z,7.97
2022-09-14T21:10:24.836Z,9.05
2022-09-14T21:13:33.288Z,11.18
2022-09-14T21:16:38.438Z,13.07
2022-09-14T21:19:41.743Z,12.38
2022-09-14T21:22:46.388Z,14.13
2022-09-14T21:25:56.097Z,13.68
2022-09-14T21:29:02.189Z,12.55
2022-09-14T21:32:08.855Z,14.40
2022-09-14T21:35:12.457Z,13.65
2022-09-14T21:38:15.647Z,17.02
2022-09-14T21:41:19.877Z,20.25
2022-09-14T21:44:24.831Z,14.40
2022-09-14T21:47:28.028Z,14.07
2022-09-14T21:50:31.195Z,11.85
2022-09-14T21:53:34.707Z,9.90
2022-09-14T21:56:40.771Z,11.63
2022-09-14T22:00:05.738Z,10.23
2022-09-14T22:03:09.782Z,10.55
2022-09-14T22:06:16.385Z,9.55
2022-09-14T22:09:21.964Z,10.05
2022-09-14T22:12:25.188Z,11.98
2022-09-14T22:15:31.968Z,5.60
2022-09-14T22:18:35.296Z,7.05
2022-09-14T22:21:39.769Z,8.57
2022-09-14T22:24:43.038Z,6.65
2022-09-14T22:27:46.702Z,5.90
2022-09-14T22:30:53.318Z,7.05
2022-09-14T22:33:58.102Z,7.00
2022-09-14T22:37:01.346Z,8.20
2022-09-14T22:40:05.147Z,7.13
2022-09-14T22:43:08.441Z,5.47
2022-09-14T22:46:14.036Z,7.10
2022-09-14T22:49:17.636Z,4.10
2022-09-14T22:52:21.007Z,9.27
2022-09-14T22:55:24.230Z,8.55
2022-09-14T22:58:28.757Z,5.25
2022-09-14T23:01:35.184Z,8.07
2022-09-14T23:04:38.637Z,7.32
2022-09-14T23:07:41.937Z,6.25
2022-09-14T23:10:45.552Z,6.57
2022-09-14T23:13:48.771Z,7.82
2022-09-14T23:16:53.505Z,6.40
2022-09-14T23:19:56.828Z,8.60
2022-09-14T23:23:00.074Z,12.00
2022-09-14T23:26:05.220Z,6.47
2022-09-14T23:29:09.669Z,6.70
2022-09-14T23:32:14.345Z,6.13
2022-09-14T23:35:17.984Z,5.35
2022-09-14T23:38:21.521Z,6.93
2022-09-14T23:41:26.270Z,6.10
2022-09-14T23:44:29.544Z,5.65
2022-09-14T23:47:34.232Z,5.60
2022-09-14T23:50:38.240Z,5.82
2022-09-14T23:53:42.825Z,7.40
2022-09-14T23:56:46.138Z,5.95
2022-09-14T23:59:49.484Z,7.65
